QFA450 YSSY-YBBN
Flight info
| Callsign | QFA450 |
|---|---|
| Flight time | 1h 9m |
| Altitude | 35000 |
| Route | OLSEM1/34R OLSEM Y193 BANDA H252 GOMOL |
| Aircraft | B738/M-SDE2E3FGHIRWXY/LB1 |
Departure
| Time | 2026-05-01 08:05 |
|---|---|
| Airport | Sydney Kingsford Smith International Airport (YSSY) |
Arrival
| Time | 2026-05-01 09:15 |
|---|---|
| Airport | Brisbane International Airport (YBBN) |
| Time | Latitude | Longitude | Altitude | Speed | Heading |
|---|---|---|---|---|---|
| 2026-05-01 07:41 | -33.93599 | 151.17987 | 19 ft | 0 kts | 278° |
| 2026-05-01 07:52 | -33.93603 | 151.18019 | 20 ft | 1 kts | 278° |
| 2026-05-01 07:52 | -33.93604 | 151.18025 | 20 ft | 2 kts | 277° |
| 2026-05-01 07:52 | -33.93601 | 151.18043 | 20 ft | 2 kts | 237° |
| 2026-05-01 07:53 | -33.93583 | 151.18057 | 21 ft | 1 kts | 186° |
| 2026-05-01 07:53 | -33.93578 | 151.18059 | 21 ft | 0 kts | 187° |
| 2026-05-01 07:56 | -33.93650 | 151.18056 | 19 ft | 13 kts | 178° |
| 2026-05-01 07:56 | -33.93804 | 151.17937 | 13 ft | 16 kts | 255° |
| 2026-05-01 07:57 | -33.93837 | 151.17804 | 8 ft | 12 kts | 240° |
| 2026-05-01 07:57 | -33.93956 | 151.17795 | 11 ft | 12 kts | 168° |
| 2026-05-01 07:58 | -33.94222 | 151.17864 | 17 ft | 24 kts | 168° |
| 2026-05-01 07:58 | -33.94597 | 151.17903 | 25 ft | 22 kts | 168° |
| 2026-05-01 07:59 | -33.94854 | 151.17970 | 26 ft | 22 kts | 167° |
| 2026-05-01 07:59 | -33.95036 | 151.18018 | 23 ft | 0 kts | 168° |
| 2026-05-01 08:00 | -33.95056 | 151.18488 | 16 ft | 17 kts | 128° |
| 2026-05-01 08:01 | -33.95444 | 151.18755 | 11 ft | 25 kts | 168° |
| 2026-05-01 08:01 | -33.95628 | 151.18803 | 9 ft | 28 kts | 169° |
| 2026-05-01 08:01 | -33.95828 | 151.18854 | 8 ft | 30 kts | 168° |
| 2026-05-01 08:02 | -33.96187 | 151.18948 | 8 ft | 32 kts | 168° |
| 2026-05-01 08:02 | -33.96475 | 151.19022 | 10 ft | 30 kts | 167° |
| 2026-05-01 08:03 | -33.96815 | 151.19069 | 11 ft | 21 kts | 174° |
| 2026-05-01 08:03 | -33.96962 | 151.19104 | 12 ft | 20 kts | 169° |
| 2026-05-01 08:03 | -33.97121 | 151.19270 | 11 ft | 14 kts | 76° |
| 2026-05-01 08:04 | -33.97046 | 151.19376 | 11 ft | 0 kts | 348° |
| 2026-05-01 08:04 | -33.96646 | 151.19270 | 12 ft | 86 kts | 348° |
| 2026-05-01 08:05 | -33.94796 | 151.18794 | 281 ft | 159 kts | 351° |
| 2026-05-01 08:05 | -33.93708 | 151.18590 | 822 ft | 161 kts | 6° |
| 2026-05-01 08:05 | -33.92672 | 151.19038 | 1316 ft | 164 kts | 38° |
| 2026-05-01 08:06 | -33.91169 | 151.20644 | 2080 ft | 183 kts | 41° |
| 2026-05-01 08:06 | -33.88594 | 151.22931 | 3061 ft | 215 kts | 36° |
| 2026-05-01 08:07 | -33.86463 | 151.24776 | 3829 ft | 237 kts | 37° |
| 2026-05-01 08:07 | -33.83364 | 151.27859 | 5158 ft | 256 kts | 58° |
| 2026-05-01 08:08 | -33.82715 | 151.29835 | 5842 ft | 261 kts | 73° |
| 2026-05-01 08:08 | -33.81836 | 151.34090 | 7200 ft | 267 kts | 73° |
| 2026-05-01 08:09 | -33.80172 | 151.38084 | 8559 ft | 272 kts | 50° |
| 2026-05-01 08:09 | -33.79350 | 151.39239 | 9000 ft | 275 kts | 48° |
| 2026-05-01 08:09 | -33.78075 | 151.40953 | 9734 ft | 278 kts | 48° |
| 2026-05-01 08:10 | -33.74375 | 151.44200 | 10877 ft | 305 kts | 18° |
| 2026-05-01 08:10 | -33.70053 | 151.45538 | 11593 ft | 337 kts | 16° |
| 2026-05-01 08:11 | -33.65408 | 151.47214 | 12715 ft | 355 kts | 19° |
| 2026-05-01 08:11 | -33.61468 | 151.48779 | 13842 ft | 362 kts | 20° |
| 2026-05-01 08:12 | -33.56647 | 151.50722 | 15266 ft | 370 kts | 20° |
| 2026-05-01 08:12 | -33.53400 | 151.52022 | 16186 ft | 376 kts | 20° |
| 2026-05-01 08:12 | -33.48384 | 151.54019 | 17513 ft | 384 kts | 20° |
| 2026-05-01 08:13 | -33.45826 | 151.55035 | 18153 ft | 388 kts | 20° |
| 2026-05-01 08:13 | -33.44139 | 151.55705 | 18605 ft | 390 kts | 20° |
| 2026-05-01 08:13 | -33.38050 | 151.58119 | 20115 ft | 398 kts | 19° |
| 2026-05-01 08:14 | -33.35437 | 151.59155 | 20740 ft | 401 kts | 19° |
| 2026-05-01 08:14 | -33.33641 | 151.59866 | 21163 ft | 402 kts | 19° |
| 2026-05-01 08:14 | -33.30991 | 151.60915 | 21737 ft | 406 kts | 19° |
| 2026-05-01 08:14 | -33.28299 | 151.61980 | 22303 ft | 409 kts | 19° |
| 2026-05-01 08:15 | -33.24677 | 151.63411 | 23069 ft | 413 kts | 19° |
| 2026-05-01 08:15 | -33.20111 | 151.65212 | 23932 ft | 419 kts | 18° |
| 2026-05-01 08:15 | -33.16384 | 151.66681 | 24604 ft | 424 kts | 18° |
| 2026-05-01 08:16 | -33.14542 | 151.67406 | 24934 ft | 426 kts | 18° |
| 2026-05-01 08:16 | -33.11708 | 151.68523 | 25402 ft | 430 kts | 18° |
| 2026-05-01 08:16 | -33.08828 | 151.69655 | 25879 ft | 434 kts | 19° |
| 2026-05-01 08:16 | -33.05015 | 151.71155 | 26533 ft | 438 kts | 19° |
| 2026-05-01 08:17 | -33.02098 | 151.72302 | 26978 ft | 441 kts | 19° |
| 2026-05-01 08:17 | -32.99175 | 151.73451 | 27418 ft | 444 kts | 19° |
| 2026-05-01 08:17 | -32.96260 | 151.74596 | 27878 ft | 447 kts | 19° |
| 2026-05-01 08:17 | -32.93289 | 151.75761 | 28331 ft | 450 kts | 19° |
| 2026-05-01 08:18 | -32.91311 | 151.76538 | 28615 ft | 452 kts | 19° |
| 2026-05-01 08:18 | -32.84291 | 151.79286 | 29575 ft | 459 kts | 19° |
| 2026-05-01 08:19 | -32.79271 | 151.81249 | 30505 ft | 456 kts | 19° |
| 2026-05-01 08:19 | -32.75236 | 151.82825 | 31127 ft | 457 kts | 18° |
| 2026-05-01 08:19 | -32.72212 | 151.84004 | 31554 ft | 458 kts | 18° |
| 2026-05-01 08:19 | -32.69156 | 151.85193 | 31979 ft | 459 kts | 18° |
| 2026-05-01 08:20 | -32.67153 | 151.85973 | 32278 ft | 458 kts | 18° |
| 2026-05-01 08:20 | -32.64095 | 151.87160 | 32716 ft | 458 kts | 18° |
| 2026-05-01 08:20 | -32.61051 | 151.88344 | 33128 ft | 458 kts | 18° |
| 2026-05-01 08:20 | -32.58013 | 151.89523 | 33524 ft | 458 kts | 18° |
| 2026-05-01 08:21 | -32.55027 | 151.90683 | 33878 ft | 459 kts | 18° |
| 2026-05-01 08:21 | -32.50941 | 151.92268 | 34274 ft | 459 kts | 17° |
| 2026-05-01 08:21 | -32.47913 | 151.93443 | 34536 ft | 460 kts | 17° |
| 2026-05-01 08:21 | -32.45881 | 151.94232 | 34728 ft | 460 kts | 17° |
| 2026-05-01 08:22 | -32.42842 | 151.95410 | 35005 ft | 461 kts | 17° |
| 2026-05-01 08:22 | -32.39807 | 151.96585 | 35259 ft | 461 kts | 17° |
| 2026-05-01 08:22 | -32.36758 | 151.97765 | 35318 ft | 464 kts | 17° |
| 2026-05-01 08:23 | -32.29604 | 152.00528 | 35329 ft | 462 kts | 17° |
| 2026-05-01 08:23 | -32.24482 | 152.02504 | 35322 ft | 463 kts | 17° |
| 2026-05-01 08:24 | -32.17340 | 152.05254 | 35322 ft | 463 kts | 17° |
| 2026-05-01 08:24 | -32.11257 | 152.07594 | 35324 ft | 463 kts | 17° |
| 2026-05-01 08:25 | -32.06153 | 152.09557 | 35319 ft | 462 kts | 17° |
| 2026-05-01 08:25 | -32.00006 | 152.11917 | 35323 ft | 464 kts | 17° |
| 2026-05-01 08:26 | -31.93852 | 152.14275 | 35326 ft | 465 kts | 17° |
| 2026-05-01 08:26 | -31.87710 | 152.16625 | 35328 ft | 464 kts | 17° |
| 2026-05-01 08:27 | -31.81573 | 152.18970 | 35334 ft | 466 kts | 17° |
| 2026-05-01 08:27 | -31.74373 | 152.21716 | 35343 ft | 466 kts | 17° |
| 2026-05-01 08:28 | -31.69218 | 152.23680 | 35341 ft | 465 kts | 17° |
| 2026-05-01 08:28 | -31.63065 | 152.26021 | 35347 ft | 467 kts | 17° |
| 2026-05-01 08:29 | -31.56864 | 152.28378 | 35347 ft | 466 kts | 17° |
| 2026-05-01 08:29 | -31.50693 | 152.30719 | 35343 ft | 467 kts | 17° |
| 2026-05-01 08:30 | -31.44506 | 152.33063 | 35342 ft | 467 kts | 17° |
| 2026-05-01 08:30 | -31.37316 | 152.35782 | 35341 ft | 468 kts | 17° |
| 2026-05-01 08:31 | -31.32118 | 152.37747 | 35341 ft | 468 kts | 17° |
| 2026-05-01 08:31 | -31.25912 | 152.40091 | 35334 ft | 469 kts | 17° |
| 2026-05-01 08:32 | -31.19697 | 152.42433 | 35341 ft | 469 kts | 17° |
| 2026-05-01 08:32 | -31.13499 | 152.44765 | 35344 ft | 471 kts | 17° |
| 2026-05-01 08:33 | -31.07267 | 152.47108 | 35332 ft | 470 kts | 17° |
| 2026-05-01 08:33 | -31.00016 | 152.49832 | 35327 ft | 470 kts | 17° |
| 2026-05-01 08:34 | -30.94794 | 152.51787 | 35332 ft | 471 kts | 17° |
| 2026-05-01 08:34 | -30.87529 | 152.54504 | 35332 ft | 470 kts | 17° |
| 2026-05-01 08:35 | -30.81316 | 152.56824 | 35325 ft | 471 kts | 17° |
| 2026-05-01 08:35 | -30.76111 | 152.58752 | 35324 ft | 470 kts | 16° |
| 2026-05-01 08:36 | -30.68822 | 152.61398 | 35314 ft | 471 kts | 16° |
| 2026-05-01 08:36 | -30.63588 | 152.63287 | 35311 ft | 472 kts | 16° |
| 2026-05-01 08:37 | -30.56283 | 152.65922 | 35312 ft | 471 kts | 15° |
| 2026-05-01 08:37 | -30.50033 | 152.68178 | 35315 ft | 472 kts | 15° |
| 2026-05-01 08:38 | -30.44803 | 152.70065 | 35311 ft | 471 kts | 15° |
| 2026-05-01 08:38 | -30.37495 | 152.72702 | 35318 ft | 471 kts | 15° |
| 2026-05-01 08:39 | -30.32263 | 152.74588 | 35323 ft | 471 kts | 15° |
| 2026-05-01 08:39 | -30.24973 | 152.77211 | 35328 ft | 472 kts | 15° |
| 2026-05-01 08:40 | -30.15543 | 152.80595 | 35322 ft | 474 kts | 15° |
| 2026-05-01 08:40 | -30.09239 | 152.82852 | 35314 ft | 473 kts | 15° |
| 2026-05-01 08:41 | -30.02957 | 152.85104 | 35313 ft | 474 kts | 15° |
| 2026-05-01 08:41 | -29.96659 | 152.87358 | 35306 ft | 474 kts | 15° |
| 2026-05-01 08:42 | -29.90348 | 152.89612 | 35307 ft | 472 kts | 15° |
| 2026-05-01 08:42 | -29.84068 | 152.91852 | 35299 ft | 473 kts | 15° |
| 2026-05-01 08:43 | -29.77787 | 152.94089 | 35295 ft | 473 kts | 15° |
| 2026-05-01 08:43 | -29.72521 | 152.95961 | 35297 ft | 474 kts | 15° |
| 2026-05-01 08:44 | -29.65196 | 152.98561 | 35296 ft | 474 kts | 15° |
| 2026-05-01 08:44 | -29.59953 | 153.00423 | 35300 ft | 473 kts | 15° |
| 2026-05-01 08:45 | -29.52602 | 153.03027 | 35292 ft | 474 kts | 15° |
| 2026-05-01 08:45 | -29.46279 | 153.05264 | 35281 ft | 474 kts | 15° |
| 2026-05-01 08:46 | -29.40000 | 153.07483 | 35267 ft | 474 kts | 15° |
| 2026-05-01 08:46 | -29.33691 | 153.09709 | 35269 ft | 475 kts | 15° |
| 2026-05-01 08:47 | -29.27391 | 153.11928 | 35310 ft | 474 kts | 15° |
| 2026-05-01 08:47 | -29.21098 | 153.14143 | 35274 ft | 473 kts | 15° |
| 2026-05-01 08:48 | -29.14771 | 153.16367 | 35273 ft | 475 kts | 15° |
| 2026-05-01 08:48 | -29.08468 | 153.18579 | 35284 ft | 473 kts | 15° |
| 2026-05-01 08:49 | -29.02145 | 153.20795 | 35267 ft | 474 kts | 15° |
| 2026-05-01 08:49 | -28.99024 | 153.21889 | 35494 ft | 475 kts | 15° |
| 2026-05-01 08:49 | -28.95826 | 153.23009 | 35297 ft | 474 kts | 15° |
| 2026-05-01 08:50 | -28.89581 | 153.25197 | 35268 ft | 469 kts | 15° |
| 2026-05-01 08:50 | -28.83330 | 153.27383 | 34956 ft | 469 kts | 15° |
| 2026-05-01 08:51 | -28.80222 | 153.28468 | 34478 ft | 467 kts | 15° |
| 2026-05-01 08:51 | -28.77133 | 153.29547 | 33860 ft | 468 kts | 15° |
| 2026-05-01 08:51 | -28.74002 | 153.30638 | 33329 ft | 465 kts | 15° |
| 2026-05-01 08:51 | -28.70917 | 153.31714 | 32770 ft | 463 kts | 15° |
| 2026-05-01 08:52 | -28.67851 | 153.32782 | 32213 ft | 462 kts | 15° |
| 2026-05-01 08:52 | -28.64777 | 153.33850 | 31639 ft | 460 kts | 15° |
| 2026-05-01 08:52 | -28.61739 | 153.34906 | 31075 ft | 459 kts | 15° |
| 2026-05-01 08:52 | -28.59694 | 153.35617 | 30688 ft | 457 kts | 15° |
| 2026-05-01 08:53 | -28.55662 | 153.37021 | 29925 ft | 455 kts | 15° |
| 2026-05-01 08:53 | -28.52630 | 153.38074 | 29332 ft | 453 kts | 15° |
| 2026-05-01 08:53 | -28.49648 | 153.39110 | 28751 ft | 451 kts | 16° |
| 2026-05-01 08:53 | -28.46654 | 153.40147 | 28181 ft | 448 kts | 16° |
| 2026-05-01 08:54 | -28.43688 | 153.41176 | 27612 ft | 445 kts | 16° |
| 2026-05-01 08:54 | -28.40708 | 153.42207 | 27023 ft | 439 kts | 16° |
| 2026-05-01 08:54 | -28.37843 | 153.43199 | 26491 ft | 429 kts | 17° |
| 2026-05-01 08:54 | -28.35926 | 153.43861 | 26125 ft | 423 kts | 17° |
| 2026-05-01 08:55 | -28.32222 | 153.45138 | 25411 ft | 412 kts | 17° |
| 2026-05-01 08:55 | -28.29505 | 153.46075 | 24903 ft | 404 kts | 17° |
| 2026-05-01 08:55 | -28.27734 | 153.46686 | 24546 ft | 403 kts | 17° |
| 2026-05-01 08:55 | -28.24178 | 153.47911 | 23848 ft | 400 kts | 17° |
| 2026-05-01 08:56 | -28.21538 | 153.48819 | 23333 ft | 397 kts | 18° |
| 2026-05-01 08:56 | -28.18852 | 153.49640 | 22810 ft | 394 kts | 13° |
| 2026-05-01 08:56 | -28.16137 | 153.50029 | 22302 ft | 391 kts | 1° |
| 2026-05-01 08:56 | -28.13456 | 153.49838 | 21805 ft | 389 kts | 353° |
| 2026-05-01 08:57 | -28.10790 | 153.49377 | 21304 ft | 386 kts | 350° |
| 2026-05-01 08:57 | -28.08170 | 153.48825 | 20804 ft | 383 kts | 349° |
| 2026-05-01 08:57 | -28.05563 | 153.48239 | 20304 ft | 381 kts | 349° |
| 2026-05-01 08:57 | -28.02978 | 153.47656 | 19806 ft | 378 kts | 349° |
| 2026-05-01 08:58 | -28.01230 | 153.47267 | 19470 ft | 376 kts | 349° |
| 2026-05-01 08:58 | -27.98689 | 153.46710 | 18983 ft | 373 kts | 349° |
| 2026-05-01 08:58 | -27.95291 | 153.45979 | 18329 ft | 370 kts | 349° |
| 2026-05-01 08:58 | -27.93608 | 153.45621 | 18007 ft | 368 kts | 350° |
| 2026-05-01 08:59 | -27.90278 | 153.44922 | 17371 ft | 365 kts | 350° |
| 2026-05-01 08:59 | -27.87765 | 153.44400 | 16875 ft | 362 kts | 351° |
| 2026-05-01 08:59 | -27.85306 | 153.43892 | 16405 ft | 360 kts | 351° |
| 2026-05-01 08:59 | -27.82845 | 153.43384 | 15925 ft | 357 kts | 351° |
| 2026-05-01 09:00 | -27.80418 | 153.42883 | 15447 ft | 355 kts | 351° |
| 2026-05-01 09:00 | -27.78789 | 153.42548 | 15130 ft | 354 kts | 352° |
| 2026-05-01 09:00 | -27.76397 | 153.42056 | 14661 ft | 351 kts | 352° |
| 2026-05-01 09:00 | -27.73190 | 153.41396 | 14039 ft | 349 kts | 352° |
| 2026-05-01 09:01 | -27.71583 | 153.41064 | 13723 ft | 347 kts | 352° |
| 2026-05-01 09:01 | -27.68428 | 153.40414 | 13111 ft | 344 kts | 352° |
| 2026-05-01 09:01 | -27.66094 | 153.39935 | 12651 ft | 342 kts | 352° |
| 2026-05-01 09:01 | -27.63743 | 153.39526 | 12254 ft | 336 kts | 358° |
| 2026-05-01 09:02 | -27.61440 | 153.39433 | 12220 ft | 324 kts | 4° |
| 2026-05-01 09:02 | -27.59198 | 153.39526 | 12210 ft | 326 kts | 6° |
| 2026-05-01 09:02 | -27.56903 | 153.39684 | 12210 ft | 326 kts | 7° |
| 2026-05-01 09:02 | -27.54656 | 153.39838 | 12000 ft | 323 kts | 7° |
| 2026-05-01 09:03 | -27.52419 | 153.39972 | 11606 ft | 321 kts | 7° |
| 2026-05-01 09:03 | -27.50201 | 153.40086 | 11178 ft | 320 kts | 6° |
| 2026-05-01 09:03 | -27.48718 | 153.40158 | 10876 ft | 320 kts | 6° |
| 2026-05-01 09:03 | -27.45759 | 153.40294 | 10447 ft | 312 kts | 6° |
| 2026-05-01 09:04 | -27.43615 | 153.40387 | 10242 ft | 303 kts | 6° |
| 2026-05-01 09:04 | -27.41522 | 153.40480 | 9847 ft | 302 kts | 6° |
| 2026-05-01 09:04 | -27.39437 | 153.40576 | 9389 ft | 299 kts | 7° |
| 2026-05-01 09:04 | -27.37372 | 153.40669 | 9045 ft | 291 kts | 7° |
| 2026-05-01 09:05 | -27.35388 | 153.40756 | 8997 ft | 282 kts | 7° |
| 2026-05-01 09:05 | -27.33403 | 153.40848 | 8906 ft | 281 kts | 7° |
| 2026-05-01 09:05 | -27.31465 | 153.40936 | 8656 ft | 277 kts | 7° |
| 2026-05-01 09:05 | -27.29547 | 153.41025 | 8324 ft | 275 kts | 7° |
| 2026-05-01 09:06 | -27.27641 | 153.41113 | 7989 ft | 273 kts | 7° |
| 2026-05-01 09:06 | -27.25756 | 153.41200 | 7661 ft | 272 kts | 7° |
| 2026-05-01 09:06 | -27.23866 | 153.41286 | 7330 ft | 271 kts | 8° |
| 2026-05-01 09:06 | -27.21994 | 153.41371 | 6994 ft | 269 kts | 7° |
| 2026-05-01 09:07 | -27.20097 | 153.41310 | 6651 ft | 272 kts | 356° |
| 2026-05-01 09:07 | -27.18318 | 153.40579 | 6352 ft | 277 kts | 331° |
| 2026-05-01 09:07 | -27.16805 | 153.39239 | 6019 ft | 277 kts | 321° |
| 2026-05-01 09:07 | -27.15389 | 153.37769 | 5673 ft | 275 kts | 320° |
| 2026-05-01 09:08 | -27.14114 | 153.36217 | 5492 ft | 267 kts | 308° |
| 2026-05-01 09:08 | -27.13244 | 153.34433 | 5369 ft | 256 kts | 287° |
| 2026-05-01 09:08 | -27.13178 | 153.32507 | 5272 ft | 239 kts | 252° |
| 2026-05-01 09:08 | -27.13806 | 153.30859 | 5208 ft | 222 kts | 237° |
| 2026-05-01 09:09 | -27.14493 | 153.29358 | 5145 ft | 208 kts | 239° |
| 2026-05-01 09:09 | -27.15112 | 153.27908 | 5103 ft | 208 kts | 240° |
| 2026-05-01 09:09 | -27.15775 | 153.26500 | 4932 ft | 200 kts | 229° |
| 2026-05-01 09:09 | -27.16713 | 153.25407 | 4595 ft | 187 kts | 208° |
| 2026-05-01 09:10 | -27.17781 | 153.24651 | 4372 ft | 182 kts | 202° |
| 2026-05-01 09:10 | -27.18893 | 153.23972 | 4130 ft | 178 kts | 199° |
| 2026-05-01 09:10 | -27.19959 | 153.23351 | 3845 ft | 170 kts | 199° |
| 2026-05-01 09:10 | -27.20998 | 153.22757 | 3643 ft | 166 kts | 198° |
| 2026-05-01 09:11 | -27.22040 | 153.22170 | 3410 ft | 166 kts | 198° |
| 2026-05-01 09:11 | -27.23068 | 153.21587 | 3180 ft | 165 kts | 199° |
| 2026-05-01 09:11 | -27.24102 | 153.21001 | 2944 ft | 164 kts | 198° |
| 2026-05-01 09:11 | -27.25125 | 153.20422 | 2716 ft | 164 kts | 199° |
| 2026-05-01 09:12 | -27.26146 | 153.19844 | 2488 ft | 164 kts | 199° |
| 2026-05-01 09:12 | -27.27162 | 153.19267 | 2265 ft | 164 kts | 199° |
| 2026-05-01 09:12 | -27.28178 | 153.18692 | 2046 ft | 162 kts | 199° |
| 2026-05-01 09:12 | -27.29184 | 153.18121 | 1830 ft | 161 kts | 200° |
| 2026-05-01 09:13 | -27.30180 | 153.17555 | 1654 ft | 155 kts | 200° |
| 2026-05-01 09:13 | -27.31149 | 153.17009 | 1391 ft | 153 kts | 200° |
| 2026-05-01 09:13 | -27.32077 | 153.16476 | 1197 ft | 148 kts | 201° |
| 2026-05-01 09:13 | -27.33010 | 153.15950 | 1069 ft | 149 kts | 202° |
| 2026-05-01 09:14 | -27.33945 | 153.15422 | 862 ft | 151 kts | 202° |
| 2026-05-01 09:14 | -27.34864 | 153.14894 | 644 ft | 148 kts | 204° |
| 2026-05-01 09:14 | -27.35782 | 153.14384 | 438 ft | 145 kts | 202° |
| 2026-05-01 09:14 | -27.36680 | 153.13886 | 246 ft | 142 kts | 205° |
| 2026-05-01 09:15 | -27.37565 | 153.13379 | 81 ft | 142 kts | 207° |
| 2026-05-01 09:15 | -27.38276 | 153.12970 | 20 ft | 48 kts | 206° |
| 2026-05-01 09:15 | -27.38319 | 153.12946 | 20 ft | 0 kts | 206° |